This is the latest recevied weather packets stored in our database for station/object N3WMC. If no packets are shown the sender has not sent any weather packets the latest 10 day(s).
| Time | Temp. | Humidity | Pressure | Rain* | Wind** | Luminosity | Snow |
|---|---|---|---|---|---|---|---|
| 1787601370 | 22.22° C | 56% | 1017.3 hPa | 0 mm | - | 185 W/m² | - |
| 1787601069 | 21.67° C | 57% | 1017.2 hPa | 0 mm | - | 530 W/m² | - |
| 1787600764 | 21.67° C | 59% | 1017.1 hPa | 0 mm | - | 143 W/m² | - |
| 1787600460 | 21.67° C | 59% | 1017.3 hPa | 0 mm | - | 211 W/m² | - |
| 1787600155 | 21.67° C | 58% | 1017.2 hPa | 0 mm | - | 201 W/m² | - |
| 1787599852 | 21.11° C | 59% | 1017.3 hPa | 0 mm | - | 137 W/m² | - |
| 1787599548 | 21.67° C | 58% | 1017.4 hPa | 0 mm | - | 159 W/m² | - |
| 1787599243 | 23.33° C | 54% | 1017.2 hPa | 0 mm | - | 263 W/m² | - |
| 1787598938 | 22.22° C | 55% | 1017.3 hPa | 0 mm | - | 634 W/m² | - |
| 1787598634 | 21.67° C | 58% | 1017.5 hPa | 0 mm | - | 590 W/m² | - |
| 1787598328 | 22.22° C | 56% | 1017.6 hPa | 0 mm | - | 197 W/m² | - |
| 1787598026 | 22.22° C | 55% | 1017.7 hPa | 0 mm | - | 642 W/m² | - |
| 1787597725 | 21.67° C | 58% | 1017.5 hPa | 0 mm | - | 236 W/m² | - |
| 1787597424 | 22.78° C | 55% | 1017.6 hPa | 0 mm | - | 331 W/m² | - |
| 1787597118 | 21.11° C | 59% | 1017.6 hPa | 0 mm | - | 282 W/m² | - |
| 1787596815 | 21.11° C | 59% | 1017.5 hPa | 0 mm | - | 136 W/m² | - |
| 1787596510 | 21.11° C | 56% | 1017.5 hPa | 0 mm | - | 235 W/m² | - |
| 1787596206 | 21.11° C | 58% | 1017.6 hPa | 0 mm | - | 171 W/m² | - |
| 1787595902 | 22.78° C | 55% | 1017.5 hPa | 0 mm | - | 219 W/m² | - |
| 1787595596 | 22.22° C | 58% | 1017.5 hPa | 0 mm | - | 326 W/m² | - |
| 1787595293 | 22.78° C | 55% | 1017.4 hPa | 0 mm | - | 669 W/m² | - |
| 1787594992 | 21.67° C | 57% | 1017.5 hPa | 0 mm | - | 687 W/m² | - |
| 1787594687 | 22.22° C | 56% | 1017.4 hPa | 0 mm | - | 720 W/m² | - |
| 1787594386 | 22.22° C | 57% | 1017.3 hPa | 0 mm | - | 661 W/m² | - |
| 1787594080 | 22.22° C | 57% | 1017.3 hPa | 0 mm | - | 785 W/m² | - |
* Rain latest hour (hover to see other rain measurements)
** Current wind speed in m/s (hover to see current wind gust speed)